Time;durP1;ratioP1;P1;durP2;ratioP2;P2;SDS_P1;SDS_P2;PMS_P1;PMS_P2;Temp;Humidity;BMP_temperature;BMP_pressure;BME280_temperature;BME280_humidity;BME280_pressure;Samples;Min_cycle;Max_cycle;Signal;HPM_P1;HPM_P2
2022/09/27 00:01:09;;;;;;;3.50;1.00;;;;;;;10.75;68.30;98914.72;4997832;28;20136;-46
2022/09/27 00:03:37;;;;;;;3.65;0.85;;;;;;;10.69;68.42;98920.03;5000654;28;20045;-43
2022/09/27 00:06:26;;;;;;;8.38;1.05;;;;;;;10.64;67.79;98921.88;5003505;28;20073;-44
2022/09/27 00:08:53;;;;;;;;;;;;;;;10.45;68.58;98911.03;5005387;28;20568;-43
2022/09/27 00:11:26;;;;;;;3.80;0.93;;;;;;;10.48;67.56;98917.00;5002617;28;19928;-45
2022/09/27 00:13:55;;;;;;;5.88;0.60;;;;;;;10.47;67.79;98924.81;5007309;28;20133;-47
2022/09/27 00:16:24;;;;;;;2.45;1.65;;;;;;;10.42;67.76;98922.28;5001146;28;20585;-44
2022/09/27 00:18:51;;;;;;;3.83;1.35;;;;;;;10.37;68.31;98926.69;5001757;28;20609;-45
2022/09/27 00:21:18;;;;;;;2.35;0.60;;;;;;;10.33;68.27;98925.06;5003831;28;20034;-45
2022/09/27 00:23:44;;;;;;;6.57;0.70;;;;;;;10.27;68.07;98929.44;5002346;28;20129;-43
2022/09/27 00:26:12;;;;;;;3.22;0.55;;;;;;;10.24;68.11;98929.50;5005427;28;20077;-43
2022/09/27 00:28:39;;;;;;;3.92;1.02;;;;;;;10.21;68.48;98939.06;5003943;28;20082;-43
2022/09/27 00:31:16;;;;;;;5.45;0.60;;;;;;;10.13;68.09;98936.63;5006072;28;20421;-49
2022/09/27 00:33:43;;;;;;;3.58;0.85;;;;;;;10.11;67.68;98938.41;5003853;28;20129;-44
2022/09/27 00:36:09;;;;;;;2.55;0.50;;;;;;;10.07;68.54;98932.44;5004740;28;20057;-46
2022/09/27 00:38:36;;;;;;;1.17;0.63;;;;;;;10.02;68.39;98940.28;5003636;28;20128;-44
2022/09/27 00:41:03;;;;;;;2.08;0.75;;;;;;;9.97;68.06;98934.31;5002882;28;20069;-45
2022/09/27 00:43:43;;;;;;;2.15;0.63;;;;;;;9.89;68.57;98934.47;5001750;28;20096;-44
2022/09/27 00:46:12;;;;;;;1.30;0.50;;;;;;;9.86;68.48;98928.50;4998185;28;20049;-47
2022/09/27 00:48:38;;;;;;;1.23;0.43;;;;;;;9.81;68.40;98922.53;4997294;28;20076;-44
2022/09/27 00:51:08;;;;;;;0.85;0.45;;;;;;;9.79;68.30;98921.72;5002711;28;20055;-45
2022/09/27 00:53:45;;;;;;;1.55;0.35;;;;;;;9.75;68.20;98915.75;5006962;28;20077;-45
2022/09/27 00:56:17;;;;;;;2.83;0.85;;;;;;;9.70;68.21;98923.59;5006656;28;20104;-45
2022/09/27 00:58:52;;;;;;;1.55;0.43;;;;;;;9.66;67.70;98927.09;5003484;28;20045;-46
2022/09/27 01:01:18;;;;;;;3.45;0.50;;;;;;;9.62;67.89;98940.94;5003877;28;20446;-43
2022/09/27 01:03:54;;;;;;;1.63;0.50;;;;;;;9.61;68.56;98945.28;5003823;28;20116;-44
2022/09/27 01:06:21;;;;;;;2.70;0.50;;;;;;;9.60;68.16;98937.56;5001767;28;20096;-47
2022/09/27 01:08:48;;;;;;;3.65;0.85;;;;;;;9.59;68.14;98928.09;5007188;28;20133;-47
2022/09/27 01:17:25;;;;;;;4.55;0.70;;;;;;;9.43;68.84;98930.94;5043390;27;20403;-44
2022/09/27 01:22:49;;;;;;;3.05;0.60;;;;;;;9.40;68.65;98920.66;5033524;28;20407;-45
2022/09/27 01:25:56;;;;;;;3.28;0.40;;;;;;;9.32;68.64;98925.09;5002436;28;20133;-44
2022/09/27 01:44:50;;;;;;;1.63;0.70;;;;;;;9.28;69.10;98905.34;5030708;27;20909;-46
2022/09/27 01:47:21;;;;;;;1.77;0.57;;;;;;;9.23;67.86;98911.41;5003413;28;20045;-43
2022/09/27 01:52:36;;;;;;;3.80;1.17;;;;;;;9.15;68.26;98915.84;5046249;27;20395;-42
2022/09/27 01:55:06;;;;;;;5.85;1.20;;;;;;;9.11;67.83;98914.19;5032344;28;20136;-46
2022/09/27 01:57:38;;;;;;;4.75;1.00;;;;;;;9.07;67.93;98915.09;5032027;28;20155;-45
2022/09/27 02:00:08;;;;;;;3.17;1.15;;;;;;;9.05;68.21;98903.97;5030753;28;20077;-43
2022/09/27 02:02:41;;;;;;;4.80;1.10;;;;;;;9.00;67.77;98899.72;5062740;28;20092;-42
2022/09/27 02:05:12;;;;;;;3.90;0.77;;;;;;;8.98;68.35;98901.47;5024023;28;20487;-43
2022/09/27 02:07:47;;;;;;;4.45;1.52;;;;;;;8.96;67.55;98899.78;5032678;28;20124;-45
2022/09/27 02:10:20;;;;;;;3.08;0.98;;;;;;;8.94;68.53;98906.69;5032092;28;20437;-42
2022/09/27 02:13:16;;;;;;;1.50;1.05;;;;;;;8.87;67.60;98900.75;5031092;28;20049;-41
2022/09/27 02:15:56;;;;;;;5.00;1.30;;;;;;;8.86;67.84;98899.91;5028987;28;21799;-43
2022/09/27 02:18:33;;;;;;;3.15;1.30;;;;;;;8.85;67.85;98887.03;5030684;28;20478;-41
2022/09/27 02:21:03;;;;;;;6.80;0.75;;;;;;;8.84;68.57;98896.50;5031531;28;20421;-42
2022/09/27 02:23:52;;;;;;;6.82;1.10;;;;;;;8.78;67.97;98893.16;5032020;28;20041;-43
2022/09/27 02:26:26;;;;;;;9.65;1.58;;;;;;;8.80;68.37;98886.22;5048273;28;20129;-47
2022/09/27 02:29:01;;;;;;;5.95;1.52;;;;;;;8.77;67.39;98894.00;5030846;28;20049;-44
2022/09/27 02:31:27;;;;;;;5.63;1.85;;;;;;;8.76;67.81;98881.97;5021801;28;20049;-42
2022/09/27 02:34:01;;;;;;;3.63;1.25;;;;;;;8.73;68.41;98878.59;5032095;28;20042;-42
2022/09/27 02:36:29;;;;;;;2.83;1.40;;;;;;;8.72;68.62;98887.19;5033530;28;20071;-42
2022/09/27 02:38:55;;;;;;;5.40;1.85;;;;;;;8.73;68.70;98870.84;5029139;28;20147;-43
2022/09/27 02:41:22;;;;;;;8.00;0.95;;;;;;;8.76;67.78;98871.66;5035534;28;20080;-43
2022/09/27 02:43:54;;;;;;;6.50;1.27;;;;;;;8.79;67.74;98871.63;5027332;28;20546;-45
2022/09/27 02:55:17;;;;;;;8.43;1.48;;;;;;;8.77;68.06;98848.41;5004072;27;20427;-42
2022/09/27 03:00:45;;;;;;;4.97;0.50;;;;;;;8.70;68.37;98852.81;5054999;27;20418;-43
2022/09/27 03:05:56;;;;;;;4.28;0.88;;;;;;;8.64;67.86;98852.88;5022088;28;20422;-44
2022/09/27 03:08:23;;;;;;;4.95;0.80;;;;;;;8.63;67.90;98847.75;5010663;28;20432;-43
2022/09/27 03:10:50;;;;;;;5.75;0.80;;;;;;;8.60;67.44;98851.22;5012376;28;20141;-46
2022/09/27 03:13:17;;;;;;;4.68;0.47;;;;;;;8.59;68.26;98844.38;5004166;28;20137;-45
2022/09/27 03:15:43;;;;;;;3.22;0.65;;;;;;;8.60;68.13;98852.09;5009265;28;20497;-42
2022/09/27 03:18:10;;;;;;;2.92;0.45;;;;;;;8.62;68.29;98844.31;5010628;28;20136;-42
2022/09/27 03:20:36;;;;;;;5.78;0.63;;;;;;;8.66;68.74;98842.53;5008045;28;20078;-45
2022/09/27 03:23:03;;;;;;;4.60;1.25;;;;;;;8.68;68.44;98844.22;5013605;28;20077;-42
2022/09/27 03:25:30;;;;;;;10.43;1.08;;;;;;;8.71;68.24;98835.56;5005741;28;20100;-46
2022/09/27 03:27:56;;;;;;;5.25;1.13;;;;;;;8.72;67.88;98839.88;5016016;28;20477;-43
2022/09/27 03:30:23;;;;;;;3.28;0.60;;;;;;;8.72;67.92;98835.56;5015305;28;20155;-45
2022/09/27 03:32:49;;;;;;;6.68;0.55;;;;;;;8.72;68.29;98839.88;5014955;28;20161;-43
2022/09/27 03:35:16;;;;;;;4.85;0.52;;;;;;;8.70;67.90;98832.16;5012607;28;20101;-42
2022/09/27 03:37:43;;;;;;;4.90;0.40;;;;;;;8.69;68.63;98840.78;5016727;28;20145;-42
2022/09/27 03:40:10;;;;;;;6.20;0.32;;;;;;;8.67;68.02;98829.63;5009467;28;20042;-43
2022/09/27 03:42:37;;;;;;;5.65;0.55;;;;;;;8.65;68.74;98825.34;5014538;28;20064;-44
2022/09/27 03:45:04;;;;;;;2.38;0.95;;;;;;;8.66;68.58;98825.34;5012635;28;20038;-43
2022/09/27 03:47:30;;;;;;;3.75;1.35;;;;;;;8.66;68.02;98815.00;5008429;28;20062;-42
2022/09/27 03:49:57;;;;;;;6.20;0.63;;;;;;;8.68;68.77;98821.00;5010889;28;20132;-43
2022/09/27 03:52:23;;;;;;;7.63;1.20;;;;;;;8.70;68.78;98821.81;5021292;28;20533;-44
2022/09/27 03:54:50;;;;;;;5.30;0.52;;;;;;;8.73;69.12;98826.94;5012616;28;20066;-46
2022/09/27 03:57:17;;;;;;;6.07;0.55;;;;;;;8.78;68.86;98826.03;5014560;28;20129;-43
2022/09/27 03:59:43;;;;;;;4.60;0.68;;;;;;;8.82;68.64;98822.53;5010643;28;20152;-45
2022/09/27 04:02:10;;;;;;;7.85;0.85;;;;;;;8.85;69.79;98820.72;5012732;28;20042;-44
2022/09/27 04:04:37;;;;;;;6.40;1.27;;;;;;;8.87;69.51;98813.84;5008514;28;20046;-44
2022/09/27 04:07:03;;;;;;;5.82;0.77;;;;;;;8.90;69.20;98820.66;5008096;28;20076;-42
2022/09/27 04:09:30;;;;;;;6.50;0.75;;;;;;;8.94;69.53;98799.09;5005846;28;20082;-42
2022/09/27 04:11:56;;;;;;;9.38;0.60;;;;;;;8.96;69.11;98802.50;5003517;28;20434;-43
2022/09/27 04:14:23;;;;;;;4.88;0.70;;;;;;;8.99;69.53;98801.59;5003620;28;20062;-42
2022/09/27 04:16:49;;;;;;;4.47;0.98;;;;;;;9.02;69.15;98800.69;4995362;28;20152;-44
2022/09/27 04:19:16;;;;;;;7.40;0.65;;;;;;;9.04;69.49;98794.63;4997013;28;20124;-43
2022/09/27 04:21:43;;;;;;;5.30;0.98;;;;;;;9.07;69.09;98798.88;4993302;28;20093;-44
2022/09/27 04:24:10;;;;;;;3.25;0.55;;;;;;;9.07;69.55;98797.16;4994673;28;20136;-42
2022/09/27 04:26:38;;;;;;;1.90;0.63;;;;;;;9.08;69.66;98793.69;4990016;28;20054;-42
2022/09/27 04:29:07;;;;;;;4.32;0.77;;;;;;;9.11;69.92;98785.88;4996768;28;20414;-47
2022/09/27 04:31:33;;;;;;;4.95;1.50;;;;;;;9.13;69.64;98791.03;4995461;28;20069;-44
2022/09/27 04:34:00;;;;;;;4.43;0.93;;;;;;;9.15;69.30;98797.00;4995944;28;20137;-44
2022/09/27 04:36:26;;;;;;;3.40;0.52;;;;;;;9.17;69.19;98790.09;4998601;28;20050;-42
2022/09/27 04:38:56;;;;;;;5.13;1.00;;;;;;;9.20;68.95;98779.72;4991547;28;20121;-44
2022/09/27 04:41:23;;;;;;;7.05;0.73;;;;;;;9.22;69.66;98780.53;4996534;28;20073;-42
2022/09/27 04:43:51;;;;;;;2.90;0.75;;;;;;;9.26;69.25;98773.59;4986359;28;20141;-42
2022/09/27 04:46:24;;;;;;;2.75;1.23;;;;;;;9.29;69.19;98777.84;4989640;28;20043;-43
2022/09/27 04:48:51;;;;;;;4.40;0.47;;;;;;;9.31;68.55;98776.06;5002207;28;20058;-46
2022/09/27 04:51:18;;;;;;;4.78;0.38;;;;;;;9.33;69.22;98774.31;4996595;28;20125;-44
2022/09/27 04:53:46;;;;;;;4.40;0.70;;;;;;;9.34;69.19;98776.88;4994938;28;20054;-44
2022/09/27 04:56:14;;;;;;;2.08;0.80;;;;;;;9.36;69.36;98769.09;4995654;28;20129;-44
2022/09/27 04:58:41;;;;;;;5.15;0.50;;;;;;;9.38;69.41;98772.50;4990494;28;20134;-45
2022/09/27 05:01:08;;;;;;;2.13;0.90;;;;;;;9.37;69.30;98768.22;4994724;28;20131;-44
2022/09/27 05:03:35;;;;;;;4.65;0.80;;;;;;;9.38;69.07;98768.19;4999488;28;20487;-41
2022/09/27 05:06:02;;;;;;;9.00;0.90;;;;;;;9.39;69.52;98759.56;4991316;28;20049;-44
2022/09/27 05:08:28;;;;;;;4.15;0.55;;;;;;;9.40;69.09;98760.41;4991624;28;20141;-42
2022/09/27 05:10:55;;;;;;;6.97;0.95;;;;;;;9.42;69.07;98758.63;4993546;28;20142;-43
2022/09/27 05:13:22;;;;;;;5.97;0.77;;;;;;;9.43;68.99;98755.19;4990486;28;20455;-42
2022/09/27 05:15:48;;;;;;;3.17;1.05;;;;;;;9.44;68.99;98756.88;4993636;28;20120;-41
2022/09/27 05:18:16;;;;;;;3.13;0.52;;;;;;;9.46;68.93;98757.69;4994619;28;20049;-41
2022/09/27 05:20:43;;;;;;;4.55;0.45;;;;;;;9.46;69.07;98760.28;4993619;28;20057;-43
2022/09/27 05:23:11;;;;;;;3.75;0.77;;;;;;;9.48;68.60;98768.88;4997120;28;20054;-43
2022/09/27 05:25:38;;;;;;;2.58;0.85;;;;;;;9.47;69.17;98767.19;4985476;28;20060;-45
2022/09/27 05:28:05;;;;;;;2.80;0.35;;;;;;;9.48;69.02;98763.72;4996096;28;20137;-42
2022/09/27 05:30:31;;;;;;;0.68;0.43;;;;;;;9.47;69.15;98771.50;5005931;28;20077;-43
2022/09/27 05:32:58;;;;;;;3.17;0.65;;;;;;;9.49;68.82;98769.75;4994070;28;20042;-42
2022/09/27 05:35:25;;;;;;;0.98;0.50;;;;;;;9.50;68.80;98763.69;4994979;28;20460;-43
2022/09/27 05:37:54;;;;;;;2.53;0.63;;;;;;;9.51;68.82;98758.47;4991809;28;20074;-42
2022/09/27 05:40:23;;;;;;;2.60;1.08;;;;;;;9.55;69.30;98763.59;4996800;28;20494;-42
2022/09/27 05:43:06;;;;;;;1.45;0.60;;;;;;;9.55;69.15;98771.34;5000224;28;20078;-45
2022/09/27 05:45:33;;;;;;;1.58;0.47;;;;;;;9.58;68.46;98768.69;4998570;28;20109;-42
2022/09/27 05:47:59;;;;;;;2.50;0.88;;;;;;;9.55;68.77;98763.59;4993249;28;20170;-42
2022/09/27 05:50:26;;;;;;;2.55;0.73;;;;;;;9.58;68.71;98759.22;5005015;28;20063;-42
2022/09/27 05:52:54;;;;;;;1.00;0.43;;;;;;;9.59;68.86;98762.66;4995171;28;20057;-41
2022/09/27 05:55:20;;;;;;;1.27;0.28;;;;;;;9.59;69.64;98762.66;5003239;28;20153;-42
2022/09/27 05:57:58;;;;;;;1.42;0.57;;;;;;;9.57;68.50;98767.00;4995073;28;20057;-41
2022/09/27 06:00:26;;;;;;;3.67;0.55;;;;;;;9.59;69.22;98765.25;4987162;28;20058;-41
2022/09/27 06:02:54;;;;;;;1.80;0.30;;;;;;;9.58;69.12;98761.78;4989121;28;20052;-43
2022/09/27 06:05:22;;;;;;;3.55;0.60;;;;;;;9.56;69.46;98760.13;4996583;28;20044;-43
2022/09/27 06:07:49;;;;;;;3.13;0.30;;;;;;;9.56;69.68;98760.13;4982246;28;20042;-47
2022/09/27 06:10:18;;;;;;;4.10;1.13;;;;;;;9.53;69.68;98750.69;4992732;28;20050;-45
2022/09/27 06:12:45;;;;;;;2.15;0.68;;;;;;;9.52;69.77;98755.00;4993864;28;20081;-42
2022/09/27 06:15:11;;;;;;;4.35;1.38;;;;;;;9.51;69.84;98748.16;4996851;28;20125;-45
2022/09/27 06:17:38;;;;;;;11.20;4.13;;;;;;;9.49;70.55;98744.72;4984155;28;20081;-41
2022/09/27 06:20:06;;;;;;;3.65;1.15;;;;;;;9.50;70.46;98750.75;4990684;28;20241;-43
2022/09/27 06:22:33;;;;;;;3.53;1.25;;;;;;;9.51;70.42;98753.31;4992843;28;20130;-45
2022/09/27 06:24:59;;;;;;;3.40;2.05;;;;;;;9.54;70.23;98748.94;4989999;28;20049;-43
2022/09/27 06:27:26;;;;;;;4.32;0.88;;;;;;;9.56;69.93;98747.19;4991112;28;20128;-43
2022/09/27 06:29:52;;;;;;;4.78;1.88;;;;;;;9.59;70.25;98749.72;4988520;28;20093;-44
2022/09/27 06:32:19;;;;;;;3.67;1.55;;;;;;;9.61;70.03;98753.13;4984992;28;20703;-42
2022/09/27 06:34:45;;;;;;;2.60;0.90;;;;;;;9.62;70.31;98755.69;4989304;28;20042;-45
2022/09/27 06:37:12;;;;;;;5.97;0.75;;;;;;;9.64;70.13;98748.75;4987222;28;20173;-48
2022/09/27 06:39:39;;;;;;;3.67;0.85;;;;;;;9.64;70.23;98758.25;4994138;28;20474;-43
2022/09/27 06:42:06;;;;;;;3.97;0.82;;;;;;;9.65;70.39;98749.59;4989028;28;20053;-44
2022/09/27 06:44:33;;;;;;;10.00;3.72;;;;;;;9.67;70.31;98746.97;4998214;28;20046;-44
2022/09/27 06:47:00;;;;;;;19.40;5.63;;;;;;;9.70;70.55;98754.69;4988272;28;20561;-44
2022/09/27 06:49:26;;;;;;;21.60;4.82;;;;;;;9.74;70.24;98752.00;4992703;28;20052;-41
2022/09/27 06:51:54;;;;;;;25.35;5.70;;;;;;;9.77;70.33;98749.34;4986120;28;20058;-43
2022/09/27 06:54:20;;;;;;;18.40;4.28;;;;;;;9.81;70.05;98749.28;4981716;28;20144;-41
2022/09/27 06:56:47;;;;;;;14.65;2.88;;;;;;;9.85;70.19;98749.19;4985749;28;20050;-41
2022/09/27 07:02:00;;;;;;;16.33;4.47;;;;;;;9.90;70.32;98749.09;4988033;28;20133;-42
2022/09/27 07:04:28;;;;;;;10.20;2.55;;;;;;;9.93;70.17;98733.50;4984564;28;20100;-44
2022/09/27 07:06:54;;;;;;;23.50;5.35;;;;;;;9.96;70.61;98737.78;4988843;28;20046;-42
2022/09/27 07:09:21;;;;;;;14.10;3.00;;;;;;;9.97;70.38;98729.97;4986296;28;20052;-44
2022/09/27 07:11:48;;;;;;;13.43;2.67;;;;;;;10.01;70.46;98731.63;4992095;28;20486;-41
2022/09/27 07:14:16;;;;;;;15.48;2.90;;;;;;;10.06;70.89;98738.44;4982506;28;20129;-41
2022/09/27 07:16:44;;;;;;;10.43;2.90;;;;;;;10.07;70.89;98725.47;4981377;28;20478;-43
2022/09/27 07:19:13;;;;;;;12.95;3.45;;;;;;;10.09;70.18;98738.34;4980719;28;20046;-43
2022/09/27 07:21:39;;;;;;;7.85;1.95;;;;;;;10.10;70.93;98727.97;4985595;28;20204;-44
2022/09/27 07:24:06;;;;;;;5.72;2.28;;;;;;;10.11;70.71;98728.81;4984900;28;20046;-47
2022/09/27 07:26:32;;;;;;;5.10;1.33;;;;;;;10.12;70.51;98726.22;4976709;28;20054;-42
2022/09/27 07:29:00;;;;;;;8.60;1.75;;;;;;;10.13;70.27;98724.44;4976699;28;20176;-42
2022/09/27 07:31:28;;;;;;;4.72;1.08;;;;;;;10.10;70.65;98722.78;4985001;28;20046;-42
2022/09/27 07:33:55;;;;;;;8.40;1.83;;;;;;;10.12;70.53;98720.16;4981191;28;20081;-44
2022/09/27 07:36:21;;;;;;;6.57;2.55;;;;;;;10.12;70.31;98722.75;4985341;28;20080;-42
2022/09/27 07:38:48;;;;;;;6.38;1.90;;;;;;;10.16;70.94;98721.81;4994147;28;20045;-43
2022/09/27 07:41:14;;;;;;;6.22;1.27;;;;;;;10.19;71.08;98708.81;4998573;28;20053;-42
2022/09/27 07:43:43;;;;;;;3.83;1.58;;;;;;;10.22;70.48;98703.56;4990983;28;20078;-42
2022/09/27 07:46:10;;;;;;;5.75;1.30;;;;;;;10.25;70.90;98706.09;4996297;28;20073;-41
2022/09/27 07:48:37;;;;;;;6.15;1.23;;;;;;;10.28;70.80;98708.63;5004693;28;20440;-45
2022/09/27 07:51:06;;;;;;;8.07;1.70;;;;;;;10.31;71.05;98706.81;4995992;28;20053;-41
2022/09/27 07:53:33;;;;;;;8.15;2.40;;;;;;;10.29;70.64;98714.63;5005643;28;20093;-44
2022/09/27 07:56:00;;;;;;;10.60;2.42;;;;;;;10.30;70.99;98711.13;5000343;28;20161;-41
2022/09/27 07:58:27;;;;;;;9.75;2.38;;;;;;;10.32;71.16;98700.75;4998004;28;20073;-41
2022/09/27 08:00:55;;;;;;;8.52;2.10;;;;;;;10.33;71.27;98710.25;5002464;28;20054;-42
2022/09/27 08:03:22;;;;;;;7.88;1.63;;;;;;;10.36;70.84;98704.97;5001558;28;20137;-43
2022/09/27 08:05:48;;;;;;;4.05;1.02;;;;;;;10.39;70.81;98704.91;5001789;28;20125;-42
2022/09/27 08:08:16;;;;;;;4.40;1.20;;;;;;;10.43;70.87;98711.69;5010375;28;20081;-45
2022/09/27 08:10:45;;;;;;;6.35;1.13;;;;;;;10.46;70.94;98701.31;5004503;28;20042;-43
2022/09/27 08:13:14;;;;;;;9.25;1.00;;;;;;;10.51;71.18;98707.22;4993018;28;20140;-44
2022/09/27 08:15:40;;;;;;;5.82;2.03;;;;;;;10.57;70.52;98710.56;4997025;28;20711;-42
2022/09/27 08:18:10;;;;;;;4.20;1.02;;;;;;;10.61;71.04;98709.59;4999197;28;20070;-41
2022/09/27 08:20:37;;;;;;;2.47;1.73;;;;;;;10.62;71.08;98711.31;4998082;28;20153;-44
2022/09/27 08:23:03;;;;;;;3.50;1.10;;;;;;;10.65;71.18;98706.06;5008711;28;20129;-42
2022/09/27 08:25:30;;;;;;;7.72;2.00;;;;;;;10.66;70.78;98707.75;4998019;28;20104;-43
2022/09/27 08:27:58;;;;;;;5.90;1.65;;;;;;;10.70;70.88;98717.13;4994825;28;20085;-43
2022/09/27 08:30:27;;;;;;;8.23;1.63;;;;;;;10.77;70.89;98716.09;4987627;28;20137;-42
2022/09/27 08:32:55;;;;;;;5.40;1.45;;;;;;;10.83;70.37;98709.06;4999184;28;20450;-42
2022/09/27 08:35:22;;;;;;;6.72;1.25;;;;;;;10.88;71.38;98713.22;4994894;28;20565;-43
2022/09/27 08:37:55;;;;;;;4.78;0.77;;;;;;;10.92;70.86;98716.59;5001057;28;20046;-45
2022/09/27 08:40:26;;;;;;;6.13;1.30;;;;;;;10.95;70.65;98708.75;4994460;28;20074;-45
2022/09/27 08:45:37;;;;;;;7.22;1.65;;;;;;;11.05;71.01;98705.03;5102801;27;20732;-44
2022/09/27 08:48:08;;;;;;;5.45;1.20;;;;;;;11.12;71.11;98702.28;5049725;28;20041;-42
2022/09/27 08:50:37;;;;;;;8.05;1.17;;;;;;;11.22;70.36;98697.69;5043743;28;20041;-43
2022/09/27 08:55:54;;;;;;;7.03;1.58;;;;;;;11.29;71.02;98697.47;5048201;27;22536;-44
2022/09/27 08:58:45;;;;;;;6.13;1.38;;;;;;;11.27;70.86;98698.41;5022119;28;20064;-43
2022/09/27 09:01:16;;;;;;;4.65;2.53;;;;;;;11.40;69.90;98693.75;5023837;28;20401;-43
2022/09/27 09:03:48;;;;;;;9.10;2.58;;;;;;;11.50;69.76;98702.97;5025542;28;20417;-44
2022/09/27 09:06:23;;;;;;;6.55;1.23;;;;;;;11.54;70.10;98702.00;5020720;28;20072;-42
2022/09/27 09:20:03;;;;;;;8.68;3.10;;;;;;;11.48;70.35;98711.69;5054463;27;20387;-41
2022/09/27 09:33:51;;;;;;;5.35;0.90;;;;;;;11.73;71.73;98695.41;5061663;27;20364;-42
2022/09/27 09:39:04;;;;;;;6.55;1.13;;;;;;;11.67;71.11;98694.72;5031500;28;20409;-41
2022/09/27 09:41:37;;;;;;;6.55;1.10;;;;;;;11.66;70.81;98694.75;5021523;28;20050;-41
2022/09/27 09:44:28;;;;;;;7.05;2.40;;;;;;;11.68;71.55;98698.13;5018702;28;20045;-43
2022/09/27 09:46:58;;;;;;;13.02;5.70;;;;;;;11.74;71.42;98697.97;5021323;28;20128;-45
2022/09/27 09:52:10;;;;;;;6.07;3.22;;;;;;;11.86;70.41;98690.72;5040110;28;20911;-41
2022/09/27 09:54:43;;;;;;;3.88;1.80;;;;;;;11.91;71.22;98684.50;4980412;28;20051;-45
2022/09/27 09:59:53;;;;;;;6.40;1.67;;;;;;;12.26;69.97;98678.31;5089011;27;20408;-42
2022/09/27 10:04:56;;;;;;;4.03;0.70;;;;;;;12.11;70.11;98690.84;5041477;27;20391;-44
2022/09/27 10:07:25;;;;;;;2.08;0.63;;;;;;;12.06;69.94;98679.78;5016019;28;20038;-40
2022/09/27 10:09:56;;;;;;;7.00;0.43;;;;;;;12.00;69.89;98667.81;5013490;28;20112;-40
2022/09/27 10:12:23;;;;;;;8.57;1.67;;;;;;;11.94;70.39;98667.97;5008665;28;20513;-45
2022/09/27 10:14:51;;;;;;;4.97;0.63;;;;;;;11.91;71.28;98673.25;5014751;28;20046;-41
2022/09/27 10:17:24;;;;;;;3.03;0.70;;;;;;;11.93;71.51;98671.47;5016681;28;20080;-40
2022/09/27 10:19:53;;;;;;;5.55;0.93;;;;;;;11.94;70.59;98665.38;5000193;28;20141;-40
2022/09/27 10:25:00;;;;;;;2.60;0.88;;;;;;;11.91;70.80;98652.50;5051930;28;20403;-39
2022/09/27 10:27:27;;;;;;;1.58;0.75;;;;;;;11.92;70.02;98643.84;4977129;28;20141;-44
2022/09/27 10:29:58;;;;;;;2.63;0.55;;;;;;;11.97;69.98;98647.13;5023969;28;20062;-41
2022/09/27 10:32:31;;;;;;;3.30;0.60;;;;;;;12.01;70.43;98642.69;5000995;28;20084;-41
2022/09/27 10:35:20;;;;;;;3.70;0.93;;;;;;;12.01;70.60;98638.34;5001859;28;20046;-42
2022/09/27 10:37:49;;;;;;;3.75;0.70;;;;;;;12.15;70.56;98642.28;5010354;28;20105;-42
2022/09/27 10:40:28;;;;;;;2.67;0.65;;;;;;;12.33;70.90;98649.47;5002193;28;20045;-41
2022/09/27 10:42:55;;;;;;;4.88;1.02;;;;;;;12.45;68.92;98634.41;5014926;28;20054;-43
2022/09/27 10:45:29;;;;;;;7.97;1.00;;;;;;;12.52;69.38;98637.63;5001442;28;20129;-40
2022/09/27 10:47:59;;;;;;;3.40;0.88;;;;;;;12.54;68.92;98631.50;5015482;28;20056;-41
2022/09/27 10:50:28;;;;;;;4.50;0.75;;;;;;;12.59;68.61;98641.72;5018207;28;20052;-41
2022/09/27 10:53:19;;;;;;;1.70;0.22;;;;;;;12.65;69.03;98635.47;4999566;28;20042;-42
2022/09/27 10:55:48;;;;;;;7.15;2.80;;;;;;;12.66;68.60;98634.59;5001114;28;20129;-42
2022/09/27 10:58:23;;;;;;;3.10;0.65;;;;;;;12.75;68.51;98628.22;5000662;28;20088;-43
2022/09/27 11:00:56;;;;;;;4.15;1.05;;;;;;;12.90;68.82;98626.84;5004279;28;20591;-40
2022/09/27 11:03:25;;;;;;;2.88;0.43;;;;;;;13.05;69.06;98621.09;5000677;28;20046;-42
2022/09/27 11:05:53;;;;;;;3.80;1.05;;;;;;;13.09;67.54;98617.50;5000141;28;20042;-43
2022/09/27 11:11:24;;;;;;;5.13;4.03;;;;;;;13.07;67.19;98623.66;5036798;28;20439;-42
2022/09/27 11:14:03;;;;;;;3.13;2.03;;;;;;;13.05;66.11;98615.91;5009369;28;20077;-40
2022/09/27 11:19:25;;;;;;;5.22;1.33;;;;;;;13.25;67.73;98611.72;5054974;27;20403;-43
2022/09/27 11:46:32;;;;;;;2.55;0.68;;;;;;;13.74;63.30;98589.97;5100150;27;20381;-41
2022/09/27 11:52:02;;;;;;;5.50;1.05;;;;;;;13.95;62.64;98590.88;5119416;27;20402;-45
2022/09/27 11:54:46;;;;;;;5.57;1.95;;;;;;;13.82;62.31;98584.47;5095328;28;20044;-43
2022/09/27 12:05:37;;;;;;;6.32;0.57;;;;;;;14.13;62.61;98589.31;5034905;27;20403;-43
2022/09/27 12:08:21;;;;;;;2.83;0.85;;;;;;;14.26;61.76;98579.22;4984987;28;20105;-41
2022/09/27 12:10:54;;;;;;;5.68;0.95;;;;;;;14.39;61.98;98579.53;4991276;28;20049;-41
2022/09/27 12:13:32;;;;;;;4.18;1.30;;;;;;;14.44;60.96;98581.97;5005641;28;20459;-42
2022/09/27 12:16:00;;;;;;;1.65;0.60;;;;;;;14.51;60.55;98580.78;5005798;28;20097;-42
2022/09/27 12:21:07;;;;;;;4.90;2.00;;;;;;;14.55;60.32;98583.28;5022804;27;20401;-41
2022/09/27 12:23:55;;;;;;;3.45;0.70;;;;;;;14.50;60.04;98570.44;5019502;28;20756;-46
2022/09/27 12:26:28;;;;;;;2.53;1.20;;;;;;;14.57;59.77;98577.09;5014865;28;21186;-41
2022/09/27 12:29:01;;;;;;;3.75;2.63;;;;;;;14.60;60.09;98569.13;5021567;28;20064;-44
2022/09/27 12:31:33;;;;;;;5.25;1.45;;;;;;;14.54;59.20;98572.00;5014953;28;20065;-43
2022/09/27 12:36:43;;;;;;;3.75;1.23;;;;;;;14.65;58.40;98580.19;5045121;28;20412;-42
2022/09/27 12:39:19;;;;;;;4.15;0.75;;;;;;;14.42;58.86;98580.34;5009617;27;20042;-42
2022/09/27 12:41:55;;;;;;;6.43;1.23;;;;;;;14.32;58.88;98572.91;5001365;28;20073;-42
2022/09/27 12:44:21;;;;;;;5.15;0.90;;;;;;;14.21;59.25;98572.50;5002249;28;20145;-45
2022/09/27 12:52:22;;;;;;;3.40;0.52;;;;;;;13.91;59.85;98570.25;5051733;28;20410;-42
2022/09/27 12:55:28;;;;;;;3.30;1.08;;;;;;;13.78;60.14;98564.69;5006733;28;20677;-42
2022/09/27 13:01:17;;;;;;;3.58;1.77;;;;;;;13.52;59.28;98554.41;5122875;27;20403;-44
2022/09/27 13:14:43;;;;;;;5.45;0.82;;;;;;;13.52;61.17;98544.00;5016657;28;20426;-42
2022/09/27 13:17:50;;;;;;;4.28;0.85;;;;;;;13.60;61.59;98539.34;5013702;28;20078;-42
2022/09/27 13:31:10;;;;;;;3.53;2.05;;;;;;;14.08;60.46;98522.72;5118198;27;20406;-44
2022/09/27 13:36:31;;;;;;;4.78;0.68;;;;;;;14.09;60.15;98530.44;5059439;27;20946;-41
2022/09/27 13:45:07;;;;;;;4.10;1.05;;;;;;;14.10;59.67;98532.16;5016592;28;20418;-42
2022/09/27 13:47:39;;;;;;;6.70;1.10;;;;;;;14.16;59.28;98525.84;4987554;28;20137;-43
2022/09/27 13:50:28;;;;;;;2.17;0.60;;;;;;;14.12;58.54;98519.91;4980466;28;20141;-47
2022/09/27 13:53:02;;;;;;;5.38;1.40;;;;;;;14.19;58.05;98514.44;4979188;28;20121;-42
2022/09/27 13:55:47;;;;;;;2.78;0.60;;;;;;;14.18;57.28;98518.78;4980815;28;20054;-43
2022/09/27 14:00:54;;;;;;;5.05;0.70;;;;;;;14.22;56.62;98522.13;5073717;27;20414;-42
2022/09/27 14:06:06;;;;;;;1.02;0.30;;;;;;;14.22;56.42;98519.53;5026617;28;20410;-43
2022/09/27 14:08:42;;;;;;;2.60;1.15;;;;;;;14.16;56.51;98514.56;5014302;28;20416;-41
2022/09/27 14:11:15;;;;;;;2.78;0.50;;;;;;;13.99;55.96;98513.53;5015027;28;20051;-45
2022/09/27 14:13:45;;;;;;;4.05;0.30;;;;;;;13.88;55.87;98517.41;5019668;28;20041;-42
2022/09/27 14:16:15;;;;;;;1.33;0.90;;;;;;;13.70;56.12;98513.81;5009792;28;20139;-42
2022/09/27 14:18:49;;;;;;;2.28;0.85;;;;;;;13.64;56.56;98526.22;5012553;28;20046;-41
2022/09/27 14:29:55;;;;;;;1.10;0.20;;;;;;;13.72;57.25;98524.97;5019282;27;20407;-41
2022/09/27 14:32:26;;;;;;;3.33;0.88;;;;;;;13.70;57.41;98523.34;4985032;28;20053;-42
2022/09/27 14:38:02;;;;;;;4.03;0.77;;;;;;;13.64;57.00;98518.41;4970964;28;20137;-43
2022/09/27 14:43:25;;;;;;;4.53;1.70;;;;;;;13.55;57.66;98510.06;5049681;28;20414;-44
2022/09/27 14:45:57;;;;;;;5.15;2.05;;;;;;;13.54;57.50;98513.56;5019741;28;20048;-43
2022/09/27 14:53:45;;;;;;;3.00;0.80;;;;;;;13.91;56.70;98526.00;5027903;27;20407;-45
2022/09/27 14:56:17;;;;;;;3.85;1.55;;;;;;;13.72;57.07;98513.75;5000617;28;20050;-42
2022/09/27 14:58:45;;;;;;;4.40;1.23;;;;;;;13.66;57.62;98517.44;5000014;28;20086;-45
2022/09/27 15:01:17;;;;;;;1.98;1.67;;;;;;;13.66;57.83;98513.97;5004813;28;20050;-43
2022/09/27 15:03:45;;;;;;;5.00;1.65;;;;;;;13.62;57.07;98514.09;5004608;28;20054;-42
2022/09/27 15:06:12;;;;;;;2.95;1.58;;;;;;;13.65;57.20;98514.91;5006108;28;20053;-41
2022/09/27 15:08:39;;;;;;;2.55;1.67;;;;;;;13.63;57.35;98522.75;4999749;28;20137;-42